sensor_id;sensor_type;location;lat;lon;timestamp;pressure;altitude;pressure_sealevel;temperature;humidity
84703;BME280;74927;50.988;11.318;2024-01-27T00:01:38;100580.72;;;3.92;79.41
84703;BME280;74927;50.988;11.318;2024-01-27T00:04:04;100577.25;;;3.92;79.79
84703;BME280;74927;50.988;11.318;2024-01-27T00:06:29;100583.06;;;4.02;79.58
84703;BME280;74927;50.988;11.318;2024-01-27T00:08:55;100585.53;;;4.01;79.29
84703;BME280;74927;50.988;11.318;2024-01-27T00:11:20;100588.25;;;4.17;78.52
84703;BME280;74927;50.988;11.318;2024-01-27T00:13:46;100581.16;;;4.13;79.37
84703;BME280;74927;50.988;11.318;2024-01-27T00:16:11;100598.38;;;4.14;79.27
84703;BME280;74927;50.988;11.318;2024-01-27T00:18:38;100596.88;;;4.18;79.89
84703;BME280;74927;50.988;11.318;2024-01-27T00:21:04;100595.63;;;4.11;78.75
84703;BME280;74927;50.988;11.318;2024-01-27T00:23:30;100600.22;;;4.02;79.24
84703;BME280;74927;50.988;11.318;2024-01-27T00:25:55;100603.72;;;4.17;76.81
84703;BME280;74927;50.988;11.318;2024-01-27T00:28:21;100586.63;;;4.04;77.45
84703;BME280;74927;50.988;11.318;2024-01-27T00:30:46;100595.75;;;3.99;76.84
84703;BME280;74927;50.988;11.318;2024-01-27T00:33:11;100604.53;;;4.03;77.18
84703;BME280;74927;50.988;11.318;2024-01-27T00:35:37;100607.13;;;4.03;77.24
84703;BME280;74927;50.988;11.318;2024-01-27T00:38:02;100621.16;;;4.08;76.31
84703;BME280;74927;50.988;11.318;2024-01-27T00:40:28;100612.94;;;4.14;75.67
84703;BME280;74927;50.988;11.318;2024-01-27T00:42:53;100625.34;;;4.06;75.58
84703;BME280;74927;50.988;11.318;2024-01-27T00:45:19;100614.31;;;4.08;75.66
84703;BME280;74927;50.988;11.318;2024-01-27T00:47:54;100619.44;;;4.22;74.91
84703;BME280;74927;50.988;11.318;2024-01-27T00:50:19;100612.94;;;4.14;74.71
84703;BME280;74927;50.988;11.318;2024-01-27T00:52:45;100617.19;;;4.13;74.46
84703;BME280;74927;50.988;11.318;2024-01-27T00:55:10;100619.31;;;4.20;73.57
84703;BME280;74927;50.988;11.318;2024-01-27T00:57:36;100621.44;;;4.13;72.84
84703;BME280;74927;50.988;11.318;2024-01-27T01:00:07;100625.69;;;4.12;72.52
84703;BME280;74927;50.988;11.318;2024-01-27T01:02:34;100624.34;;;4.04;72.20
84703;BME280;74927;50.988;11.318;2024-01-27T01:05:00;100615.91;;;4.06;71.42
84703;BME280;74927;50.988;11.318;2024-01-27T01:07:25;100620.19;;;4.06;72.22
84703;BME280;74927;50.988;11.318;2024-01-27T01:09:51;100625.13;;;4.03;70.71
84703;BME280;74927;50.988;11.318;2024-01-27T01:12:16;100626.72;;;4.01;70.83
84703;BME280;74927;50.988;11.318;2024-01-27T01:14:43;100635.31;;;4.01;70.15
84703;BME280;74927;50.988;11.318;2024-01-27T01:17:09;100621.88;;;3.92;70.47
84703;BME280;74927;50.988;11.318;2024-01-27T01:19:35;100631.03;;;3.87;71.30
84703;BME280;74927;50.988;11.318;2024-01-27T01:22:01;100632.59;;;3.85;70.62
84703;BME280;74927;50.988;11.318;2024-01-27T01:24:26;100641.00;;;3.82;71.99
84703;BME280;74927;50.988;11.318;2024-01-27T01:26:52;100633.88;;;3.78;72.59
84703;BME280;74927;50.988;11.318;2024-01-27T01:29:17;100640.13;;;3.82;71.51
84703;BME280;74927;50.988;11.318;2024-01-27T01:31:43;100640.63;;;3.76;72.40
84703;BME280;74927;50.988;11.318;2024-01-27T01:34:08;100646.38;;;3.72;72.64
84703;BME280;74927;50.988;11.318;2024-01-27T01:36:34;100648.53;;;3.66;72.77
84703;BME280;74927;50.988;11.318;2024-01-27T01:38:59;100640.75;;;3.64;73.14
84703;BME280;74927;50.988;11.318;2024-01-27T01:41:24;100637.25;;;3.64;72.36
84703;BME280;74927;50.988;11.318;2024-01-27T01:43:50;100636.38;;;3.63;72.47
84703;BME280;74927;50.988;11.318;2024-01-27T01:46:15;100635.91;;;3.56;72.13
84703;BME280;74927;50.988;11.318;2024-01-27T01:48:41;100641.03;;;3.56;72.50
84703;BME280;74927;50.988;11.318;2024-01-27T01:51:07;100639.16;;;3.53;72.51
84703;BME280;74927;50.988;11.318;2024-01-27T01:53:34;100639.06;;;3.52;72.80
84703;BME280;74927;50.988;11.318;2024-01-27T01:55:59;100640.06;;;3.54;72.09
84703;BME280;74927;50.988;11.318;2024-01-27T01:58:26;100632.72;;;3.46;72.59
84703;BME280;74927;50.988;11.318;2024-01-27T02:00:59;100639.94;;;3.52;72.22
84703;BME280;74927;50.988;11.318;2024-01-27T02:03:24;100645.59;;;3.46;72.62
84703;BME280;74927;50.988;11.318;2024-01-27T02:05:50;100655.47;;;3.40;72.54
84703;BME280;74927;50.988;11.318;2024-01-27T02:08:15;100661.50;;;3.41;72.57
84703;BME280;74927;50.988;11.318;2024-01-27T02:10:40;100660.41;;;3.37;71.94
84703;BME280;74927;50.988;11.318;2024-01-27T02:13:20;100662.31;;;3.40;72.64
84703;BME280;74927;50.988;11.318;2024-01-27T02:15:46;100659.53;;;3.37;72.73
84703;BME280;74927;50.988;11.318;2024-01-27T02:18:12;100659.13;;;3.30;72.63
84703;BME280;74927;50.988;11.318;2024-01-27T02:20:37;100660.63;;;3.27;72.51
84703;BME280;74927;50.988;11.318;2024-01-27T02:23:04;100665.66;;;3.25;73.12
84703;BME280;74927;50.988;11.318;2024-01-27T02:25:33;100673.03;;;3.21;72.87
84703;BME280;74927;50.988;11.318;2024-01-27T02:27:59;100678.19;;;3.21;73.22
84703;BME280;74927;50.988;11.318;2024-01-27T02:30:24;100681.75;;;3.23;73.71
84703;BME280;74927;50.988;11.318;2024-01-27T02:32:50;100673.84;;;3.20;73.09
84703;BME280;74927;50.988;11.318;2024-01-27T02:35:15;100682.94;;;3.15;73.17
84703;BME280;74927;50.988;11.318;2024-01-27T02:37:41;100655.47;;;3.14;73.19
84703;BME280;74927;50.988;11.318;2024-01-27T02:40:08;100680.09;;;3.37;72.78
84703;BME280;74927;50.988;11.318;2024-01-27T02:42:34;100687.00;;;3.38;72.83
84703;BME280;74927;50.988;11.318;2024-01-27T02:45:00;100687.44;;;3.44;72.83
84703;BME280;74927;50.988;11.318;2024-01-27T02:47:25;100694.34;;;3.45;73.12
84703;BME280;74927;50.988;11.318;2024-01-27T02:49:50;100701.94;;;3.43;72.79
84703;BME280;74927;50.988;11.318;2024-01-27T02:52:16;100701.16;;;3.44;72.26
84703;BME280;74927;50.988;11.318;2024-01-27T02:54:41;100700.97;;;3.55;72.01
84703;BME280;74927;50.988;11.318;2024-01-27T02:57:07;100709.47;;;3.54;73.08
84703;BME280;74927;50.988;11.318;2024-01-27T02:59:32;100708.28;;;3.62;72.46
84703;BME280;74927;50.988;11.318;2024-01-27T03:01:58;100708.69;;;3.55;72.35
84703;BME280;74927;50.988;11.318;2024-01-27T03:04:23;100714.72;;;3.55;73.13
84703;BME280;74927;50.988;11.318;2024-01-27T03:06:48;100713.25;;;3.59;72.78
84703;BME280;74927;50.988;11.318;2024-01-27T03:09:14;100712.75;;;3.64;72.88
84703;BME280;74927;50.988;11.318;2024-01-27T03:11:39;100723.94;;;3.65;72.68
84703;BME280;74927;50.988;11.318;2024-01-27T03:14:05;100730.66;;;3.63;72.81
84703;BME280;74927;50.988;11.318;2024-01-27T03:16:30;100721.75;;;3.58;72.64
84703;BME280;74927;50.988;11.318;2024-01-27T03:18:56;100722.25;;;3.52;72.91
84703;BME280;74927;50.988;11.318;2024-01-27T03:21:21;100727.50;;;3.54;72.91
84703;BME280;74927;50.988;11.318;2024-01-27T03:23:46;100719.16;;;3.44;72.92
84703;BME280;74927;50.988;11.318;2024-01-27T03:26:12;100715.22;;;3.49;72.89
84703;BME280;74927;50.988;11.318;2024-01-27T03:28:37;100718.19;;;3.56;73.29
84703;BME280;74927;50.988;11.318;2024-01-27T03:31:02;100720.56;;;3.66;72.03
84703;BME280;74927;50.988;11.318;2024-01-27T03:33:28;100725.53;;;3.63;72.83
84703;BME280;74927;50.988;11.318;2024-01-27T03:35:56;100722.72;;;3.60;71.67
84703;BME280;74927;50.988;11.318;2024-01-27T03:38:21;100729.56;;;3.59;72.01
84703;BME280;74927;50.988;11.318;2024-01-27T03:40:47;100734.72;;;3.59;71.93
84703;BME280;74927;50.988;11.318;2024-01-27T03:43:12;100739.03;;;3.47;72.47
84703;BME280;74927;50.988;11.318;2024-01-27T03:45:38;100747.84;;;3.50;73.13
84703;BME280;74927;50.988;11.318;2024-01-27T03:48:03;100753.38;;;3.43;72.89
84703;BME280;74927;50.988;11.318;2024-01-27T03:50:29;100757.81;;;3.33;73.00
84703;BME280;74927;50.988;11.318;2024-01-27T03:52:54;100762.16;;;3.34;73.52
84703;BME280;74927;50.988;11.318;2024-01-27T03:55:20;100761.41;;;3.23;73.20
84703;BME280;74927;50.988;11.318;2024-01-27T03:57:45;100769.09;;;3.35;73.63
84703;BME280;74927;50.988;11.318;2024-01-27T04:00:11;100766.53;;;3.35;73.77
84703;BME280;74927;50.988;11.318;2024-01-27T04:02:37;100764.25;;;3.39;73.20
84703;BME280;74927;50.988;11.318;2024-01-27T04:05:04;100774.03;;;3.45;73.22
84703;BME280;74927;50.988;11.318;2024-01-27T04:07:30;100770.59;;;3.44;74.37
84703;BME280;74927;50.988;11.318;2024-01-27T04:09:55;100769.81;;;3.45;73.62
84703;BME280;74927;50.988;11.318;2024-01-27T04:12:20;100774.97;;;3.45;73.08
84703;BME280;74927;50.988;11.318;2024-01-27T04:14:46;100778.53;;;3.47;73.26
84703;BME280;74927;50.988;11.318;2024-01-27T04:17:11;100790.16;;;3.42;73.61
84703;BME280;74927;50.988;11.318;2024-01-27T04:19:36;100778.56;;;3.36;74.60
84703;BME280;74927;50.988;11.318;2024-01-27T04:22:02;100774.91;;;3.32;74.70
84703;BME280;74927;50.988;11.318;2024-01-27T04:24:28;100782.53;;;3.30;74.33
84703;BME280;74927;50.988;11.318;2024-01-27T04:26:53;100786.75;;;3.30;74.94
84703;BME280;74927;50.988;11.318;2024-01-27T04:29:18;100780.94;;;3.33;75.47
84703;BME280;74927;50.988;11.318;2024-01-27T04:31:44;100784.56;;;3.23;74.96
84703;BME280;74927;50.988;11.318;2024-01-27T04:34:09;100771.66;;;3.09;75.10
84703;BME280;74927;50.988;11.318;2024-01-27T04:36:35;100774.94;;;3.07;75.25
84703;BME280;74927;50.988;11.318;2024-01-27T04:39:02;100774.53;;;3.01;75.46
84703;BME280;74927;50.988;11.318;2024-01-27T04:41:27;100772.81;;;3.01;76.45
84703;BME280;74927;50.988;11.318;2024-01-27T04:43:53;100763.72;;;2.93;75.83
84703;BME280;74927;50.988;11.318;2024-01-27T04:46:20;100773.88;;;2.91;76.50
84703;BME280;74927;50.988;11.318;2024-01-27T04:48:46;100778.78;;;2.88;75.76
84703;BME280;74927;50.988;11.318;2024-01-27T04:51:11;100774.94;;;2.82;76.26
84703;BME280;74927;50.988;11.318;2024-01-27T04:53:36;100783.19;;;2.78;75.97
84703;BME280;74927;50.988;11.318;2024-01-27T04:56:02;100776.06;;;2.73;77.42
84703;BME280;74927;50.988;11.318;2024-01-27T04:58:27;100786.69;;;2.66;76.55
84703;BME280;74927;50.988;11.318;2024-01-27T05:00:52;100788.41;;;2.54;77.06
84703;BME280;74927;50.988;11.318;2024-01-27T05:03:18;100791.16;;;2.57;76.67
84703;BME280;74927;50.988;11.318;2024-01-27T05:05:43;100795.31;;;2.55;77.24
84703;BME280;74927;50.988;11.318;2024-01-27T05:08:09;100810.50;;;2.52;77.41
84703;BME280;74927;50.988;11.318;2024-01-27T05:10:35;100805.72;;;2.45;77.21
84703;BME280;74927;50.988;11.318;2024-01-27T05:13:00;100813.19;;;2.42;77.38
84703;BME280;74927;50.988;11.318;2024-01-27T05:15:26;100822.47;;;2.40;78.04
84703;BME280;74927;50.988;11.318;2024-01-27T05:17:51;100820.22;;;2.32;77.78
84703;BME280;74927;50.988;11.318;2024-01-27T05:20:17;100814.78;;;2.28;78.13
84703;BME280;74927;50.988;11.318;2024-01-27T05:22:44;100813.91;;;2.27;78.10
84703;BME280;74927;50.988;11.318;2024-01-27T05:25:09;100812.34;;;2.29;78.73
84703;BME280;74927;50.988;11.318;2024-01-27T05:27:37;100817.78;;;2.34;78.19
84703;BME280;74927;50.988;11.318;2024-01-27T05:30:02;100818.22;;;2.28;77.80
84703;BME280;74927;50.988;11.318;2024-01-27T05:32:28;100818.78;;;2.24;77.76
84703;BME280;74927;50.988;11.318;2024-01-27T05:34:53;100819.91;;;2.28;78.47
84703;BME280;74927;50.988;11.318;2024-01-27T05:37:18;100813.53;;;2.23;78.16
84703;BME280;74927;50.988;11.318;2024-01-27T05:39:44;100823.47;;;2.30;77.85
84703;BME280;74927;50.988;11.318;2024-01-27T05:42:09;100818.13;;;2.27;77.93
84703;BME280;74927;50.988;11.318;2024-01-27T05:44:34;100823.94;;;2.24;77.81
84703;BME280;74927;50.988;11.318;2024-01-27T05:47:00;100828.06;;;2.22;78.59
84703;BME280;74927;50.988;11.318;2024-01-27T05:49:25;100834.53;;;2.17;78.43
84703;BME280;74927;50.988;11.318;2024-01-27T05:51:51;100820.13;;;2.19;78.22
84703;BME280;74927;50.988;11.318;2024-01-27T05:54:16;100828.81;;;2.21;79.21
84703;BME280;74927;50.988;11.318;2024-01-27T05:56:42;100818.91;;;2.26;78.20
84703;BME280;74927;50.988;11.318;2024-01-27T05:59:07;100820.69;;;2.27;78.33
84703;BME280;74927;50.988;11.318;2024-01-27T06:01:33;100816.13;;;2.23;78.58
84703;BME280;74927;50.988;11.318;2024-01-27T06:03:58;100816.38;;;2.14;78.69
84703;BME280;74927;50.988;11.318;2024-01-27T06:06:24;100819.00;;;2.16;78.83
84703;BME280;74927;50.988;11.318;2024-01-27T06:08:49;100823.16;;;2.13;78.67
84703;BME280;74927;50.988;11.318;2024-01-27T06:11:23;100821.81;;;2.07;79.31
84703;BME280;74927;50.988;11.318;2024-01-27T06:13:48;100830.84;;;2.13;78.87
84703;BME280;74927;50.988;11.318;2024-01-27T06:16:15;100837.53;;;2.11;78.70
84703;BME280;74927;50.988;11.318;2024-01-27T06:18:40;100834.28;;;2.02;79.05
84703;BME280;74927;50.988;11.318;2024-01-27T06:21:06;100851.16;;;2.10;79.18
84703;BME280;74927;50.988;11.318;2024-01-27T06:23:31;100849.38;;;2.09;79.17
84703;BME280;74927;50.988;11.318;2024-01-27T06:25:56;100851.81;;;2.08;79.50
84703;BME280;74927;50.988;11.318;2024-01-27T06:28:22;100862.31;;;2.11;79.41
84703;BME280;74927;50.988;11.318;2024-01-27T06:30:47;100865.13;;;2.14;79.27
84703;BME280;74927;50.988;11.318;2024-01-27T06:33:12;100864.88;;;2.11;79.55
84703;BME280;74927;50.988;11.318;2024-01-27T06:35:38;100857.41;;;2.14;79.41
84703;BME280;74927;50.988;11.318;2024-01-27T06:38:03;100854.72;;;2.12;79.07
84703;BME280;74927;50.988;11.318;2024-01-27T06:40:29;100855.84;;;2.16;79.00
84703;BME280;74927;50.988;11.318;2024-01-27T06:42:54;100862.31;;;2.11;79.28
84703;BME280;74927;50.988;11.318;2024-01-27T06:45:19;100861.63;;;2.13;79.15
84703;BME280;74927;50.988;11.318;2024-01-27T06:47:45;100863.56;;;2.16;78.89
84703;BME280;74927;50.988;11.318;2024-01-27T06:50:10;100865.88;;;2.13;79.37
84703;BME280;74927;50.988;11.318;2024-01-27T06:52:35;100859.97;;;2.14;79.29
84703;BME280;74927;50.988;11.318;2024-01-27T06:55:01;100860.19;;;2.05;79.69
84703;BME280;74927;50.988;11.318;2024-01-27T06:57:26;100876.59;;;2.07;79.95
84703;BME280;74927;50.988;11.318;2024-01-27T06:59:52;100869.00;;;2.09;80.06
84703;BME280;74927;50.988;11.318;2024-01-27T07:02:24;100873.00;;;2.05;79.12
84703;BME280;74927;50.988;11.318;2024-01-27T07:04:51;100873.69;;;2.03;80.43
84703;BME280;74927;50.988;11.318;2024-01-27T07:07:18;100874.81;;;2.18;79.73
84703;BME280;74927;50.988;11.318;2024-01-27T07:09:44;100864.31;;;2.15;79.34
84703;BME280;74927;50.988;11.318;2024-01-27T07:12:09;100872.81;;;2.14;79.56
84703;BME280;74927;50.988;11.318;2024-01-27T07:14:35;100872.13;;;2.17;79.89
84703;BME280;74927;50.988;11.318;2024-01-27T07:17:01;100863.44;;;2.26;79.41
84703;BME280;74927;50.988;11.318;2024-01-27T07:19:26;100864.31;;;2.27;79.63
84703;BME280;74927;50.988;11.318;2024-01-27T07:21:53;100857.63;;;2.29;79.03
84703;BME280;74927;50.988;11.318;2024-01-27T07:24:18;100859.53;;;2.31;79.25
84703;BME280;74927;50.988;11.318;2024-01-27T07:26:44;100864.53;;;2.30;79.55
84703;BME280;74927;50.988;11.318;2024-01-27T07:29:09;100857.84;;;2.32;79.26
84703;BME280;74927;50.988;11.318;2024-01-27T07:31:34;100859.19;;;2.27;79.79
84703;BME280;74927;50.988;11.318;2024-01-27T07:34:00;100863.75;;;2.43;78.82
84703;BME280;74927;50.988;11.318;2024-01-27T07:36:25;100864.41;;;2.40;79.45
84703;BME280;74927;50.988;11.318;2024-01-27T07:38:51;100862.88;;;2.42;79.42
84703;BME280;74927;50.988;11.318;2024-01-27T07:41:16;100870.03;;;2.46;78.95
84703;BME280;74927;50.988;11.318;2024-01-27T07:43:42;100867.75;;;2.51;79.17
84703;BME280;74927;50.988;11.318;2024-01-27T07:46:07;100873.00;;;2.52;79.03
84703;BME280;74927;50.988;11.318;2024-01-27T07:48:33;100875.47;;;2.51;79.08
84703;BME280;74927;50.988;11.318;2024-01-27T07:50:58;100882.59;;;2.55;78.68
84703;BME280;74927;50.988;11.318;2024-01-27T07:53:24;100876.38;;;2.63;78.73
84703;BME280;74927;50.988;11.318;2024-01-27T07:55:50;100877.69;;;2.70;78.38
84703;BME280;74927;50.988;11.318;2024-01-27T07:58:16;100886.50;;;2.73;78.28
84703;BME280;74927;50.988;11.318;2024-01-27T08:00:41;100888.72;;;2.81;77.95
84703;BME280;74927;50.988;11.318;2024-01-27T08:03:06;100877.09;;;2.86;78.02
84703;BME280;74927;50.988;11.318;2024-01-27T08:05:32;100879.63;;;2.98;77.44
84703;BME280;74927;50.988;11.318;2024-01-27T08:07:58;100885.78;;;3.00;76.54
84703;BME280;74927;50.988;11.318;2024-01-27T08:10:23;100889.56;;;3.05;76.71
84703;BME280;74927;50.988;11.318;2024-01-27T08:12:48;100883.28;;;3.13;76.64
84703;BME280;74927;50.988;11.318;2024-01-27T08:15:14;100886.19;;;3.18;76.39
84703;BME280;74927;50.988;11.318;2024-01-27T08:17:41;100895.47;;;3.16;76.92
84703;BME280;74927;50.988;11.318;2024-01-27T08:20:08;100896.31;;;3.28;76.30
84703;BME280;74927;50.988;11.318;2024-01-27T08:22:34;100901.97;;;3.36;75.96
84703;BME280;74927;50.988;11.318;2024-01-27T08:24:59;100898.94;;;3.41;75.35
84703;BME280;74927;50.988;11.318;2024-01-27T08:27:25;100906.94;;;3.58;75.35
84703;BME280;74927;50.988;11.318;2024-01-27T08:29:51;100900.91;;;3.57;74.93
84703;BME280;74927;50.988;11.318;2024-01-27T08:32:16;100898.59;;;3.74;75.46
84703;BME280;74927;50.988;11.318;2024-01-27T08:34:42;100899.94;;;4.07;74.02
84703;BME280;74927;50.988;11.318;2024-01-27T08:37:17;100894.84;;;4.34;72.86
84703;BME280;74927;50.988;11.318;2024-01-27T08:39:43;100902.25;;;4.69;71.83
84703;BME280;74927;50.988;11.318;2024-01-27T08:42:08;100890.44;;;4.86;71.22
84703;BME280;74927;50.988;11.318;2024-01-27T08:44:33;100902.56;;;5.15;70.17
84703;BME280;74927;50.988;11.318;2024-01-27T08:46:59;100911.34;;;5.32;69.81
84703;BME280;74927;50.988;11.318;2024-01-27T08:49:24;100912.44;;;5.36;68.69
84703;BME280;74927;50.988;11.318;2024-01-27T08:51:50;100909.16;;;5.81;67.60
84703;BME280;74927;50.988;11.318;2024-01-27T08:54:15;100916.34;;;6.00;66.30
84703;BME280;74927;50.988;11.318;2024-01-27T08:56:41;100916.66;;;5.49;67.97
84703;BME280;74927;50.988;11.318;2024-01-27T08:59:06;100917.28;;;5.88;67.77
84703;BME280;74927;50.988;11.318;2024-01-27T09:01:32;100924.91;;;6.14;66.75
84703;BME280;74927;50.988;11.318;2024-01-27T09:03:57;100920.06;;;6.65;65.18
84703;BME280;74927;50.988;11.318;2024-01-27T09:06:23;100916.53;;;6.48;64.51
84703;BME280;74927;50.988;11.318;2024-01-27T09:08:48;100916.00;;;7.16;64.42
84703;BME280;74927;50.988;11.318;2024-01-27T09:11:14;100905.75;;;7.67;61.58
84703;BME280;74927;50.988;11.318;2024-01-27T09:13:39;100914.78;;;7.92;59.63
84703;BME280;74927;50.988;11.318;2024-01-27T09:16:08;100907.06;;;8.10;59.91
84703;BME280;74927;50.988;11.318;2024-01-27T09:18:37;100910.66;;;8.30;59.04
84703;BME280;74927;50.988;11.318;2024-01-27T09:21:03;100918.31;;;8.10;59.15
84703;BME280;74927;50.988;11.318;2024-01-27T09:23:28;100920.94;;;8.45;59.33
84703;BME280;74927;50.988;11.318;2024-01-27T09:25:54;100919.50;;;8.87;56.92
84703;BME280;74927;50.988;11.318;2024-01-27T09:28:19;100914.91;;;9.00;57.17
84703;BME280;74927;50.988;11.318;2024-01-27T09:30:45;100913.13;;;8.99;57.47
84703;BME280;74927;50.988;11.318;2024-01-27T09:33:10;100917.88;;;8.53;57.09
84703;BME280;74927;50.988;11.318;2024-01-27T09:35:36;100915.03;;;9.03;55.24
84703;BME280;74927;50.988;11.318;2024-01-27T09:38:01;100915.47;;;9.12;56.90
84703;BME280;74927;50.988;11.318;2024-01-27T09:40:27;100912.00;;;9.11;55.22
84703;BME280;74927;50.988;11.318;2024-01-27T09:42:57;100910.00;;;9.06;57.08
84703;BME280;74927;50.988;11.318;2024-01-27T09:45:24;100911.34;;;9.74;54.89
84703;BME280;74927;50.988;11.318;2024-01-27T09:47:51;100918.75;;;9.65;54.63
84703;BME280;74927;50.988;11.318;2024-01-27T09:50:17;100905.22;;;10.12;54.67
84703;BME280;74927;50.988;11.318;2024-01-27T09:52:44;100911.56;;;9.79;54.00
84703;BME280;74927;50.988;11.318;2024-01-27T09:55:10;100899.63;;;10.87;51.81
84703;BME280;74927;50.988;11.318;2024-01-27T09:57:39;100906.53;;;10.64;50.93
84703;BME280;74927;50.988;11.318;2024-01-27T10:00:10;100912.38;;;10.59;51.33
84703;BME280;74927;50.988;11.318;2024-01-27T10:02:39;100906.19;;;11.00;51.16
84703;BME280;74927;50.988;11.318;2024-01-27T10:05:10;100913.63;;;10.68;51.66
84703;BME280;74927;50.988;11.318;2024-01-27T10:07:37;100916.69;;;11.02;51.19
84703;BME280;74927;50.988;11.318;2024-01-27T10:10:03;100914.91;;;10.36;51.30
84703;BME280;74927;50.988;11.318;2024-01-27T10:12:30;100915.97;;;10.01;52.43
84703;BME280;74927;50.988;11.318;2024-01-27T10:14:59;100915.13;;;9.61;54.59
84703;BME280;74927;50.988;11.318;2024-01-27T10:17:25;100902.84;;;10.38;53.00
84703;BME280;74927;50.988;11.318;2024-01-27T10:20:05;100882.06;;;11.77;49.48
84703;BME280;74927;50.988;11.318;2024-01-27T10:22:40;100884.06;;;11.84;48.56
84703;BME280;74927;50.988;11.318;2024-01-27T10:25:07;100873.59;;;12.59;47.69
84703;BME280;74927;50.988;11.318;2024-01-27T10:27:33;100876.53;;;12.43;47.72
84703;BME280;74927;50.988;11.318;2024-01-27T10:30:03;100883.06;;;11.80;48.83
84703;BME280;74927;50.988;11.318;2024-01-27T10:32:29;100895.88;;;12.50;47.16
84703;BME280;74927;50.988;11.318;2024-01-27T10:35:08;100890.13;;;12.60;45.47
84703;BME280;74927;50.988;11.318;2024-01-27T10:37:34;100884.69;;;13.38;44.24
84703;BME280;74927;50.988;11.318;2024-01-27T10:40:07;100888.28;;;13.13;45.63
84703;BME280;74927;50.988;11.318;2024-01-27T10:42:38;100885.56;;;13.69;43.45
84703;BME280;74927;50.988;11.318;2024-01-27T10:45:04;100887.13;;;13.03;44.82
84703;BME280;74927;50.988;11.318;2024-01-27T10:47:32;100896.97;;;13.12;44.74
84703;BME280;74927;50.988;11.318;2024-01-27T10:49:59;100896.91;;;12.28;45.07
84703;BME280;74927;50.988;11.318;2024-01-27T10:52:31;100908.44;;;12.61;45.37
84703;BME280;74927;50.988;11.318;2024-01-27T10:55:01;100912.84;;;12.91;44.56
84703;BME280;74927;50.988;11.318;2024-01-27T10:57:29;100909.63;;;13.57;44.01
84703;BME280;74927;50.988;11.318;2024-01-27T10:59:56;100914.41;;;13.13;45.07
84703;BME280;74927;50.988;11.318;2024-01-27T11:02:22;100914.75;;;12.95;43.52
84703;BME280;74927;50.988;11.318;2024-01-27T11:04:48;100903.19;;;12.34;45.82
84703;BME280;74927;50.988;11.318;2024-01-27T11:07:20;100909.56;;;13.26;42.76
84703;BME280;74927;50.988;11.318;2024-01-27T11:09:49;100907.53;;;13.46;43.91
84703;BME280;74927;50.988;11.318;2024-01-27T11:12:19;100908.88;;;12.75;44.88
84703;BME280;74927;50.988;11.318;2024-01-27T11:14:51;100896.63;;;13.91;43.16
84703;BME280;74927;50.988;11.318;2024-01-27T11:17:17;100904.22;;;13.83;41.92
84703;BME280;74927;50.988;11.318;2024-01-27T11:19:45;100892.63;;;13.73;42.81
84703;BME280;74927;50.988;11.318;2024-01-27T11:22:24;100898.03;;;13.48;41.76
84703;BME280;74927;50.988;11.318;2024-01-27T11:27:35;100895.25;;;12.84;44.76
84703;BME280;74927;50.988;11.318;2024-01-27T11:30:01;100910.50;;;12.44;45.11
84703;BME280;74927;50.988;11.318;2024-01-27T11:32:27;100900.13;;;13.02;44.12
84703;BME280;74927;50.988;11.318;2024-01-27T11:34:53;100904.22;;;13.83;41.70
84703;BME280;74927;50.988;11.318;2024-01-27T11:37:18;100894.22;;;13.36;42.89
84703;BME280;74927;50.988;11.318;2024-01-27T11:40:03;100894.84;;;14.23;40.86
84703;BME280;74927;50.988;11.318;2024-01-27T11:42:31;100895.88;;;13.96;42.42
84703;BME280;74927;50.988;11.318;2024-01-27T11:44:57;100899.25;;;13.92;42.72
84703;BME280;74927;50.988;11.318;2024-01-27T11:47:22;100891.38;;;14.59;40.99
84703;BME280;74927;50.988;11.318;2024-01-27T11:49:52;100895.81;;;13.61;41.21
84703;BME280;74927;50.988;11.318;2024-01-27T11:52:19;100903.38;;;13.52;41.86
84703;BME280;74927;50.988;11.318;2024-01-27T11:54:44;100909.28;;;13.16;43.43
84703;BME280;74927;50.988;11.318;2024-01-27T11:57:10;100901.38;;;13.15;43.65
84703;BME280;74927;50.988;11.318;2024-01-27T11:59:35;100898.94;;;14.48;41.86
84703;BME280;74927;50.988;11.318;2024-01-27T12:02:02;100889.66;;;14.99;38.87
84703;BME280;74927;50.988;11.318;2024-01-27T12:04:27;100889.56;;;15.78;37.34
84703;BME280;74927;50.988;11.318;2024-01-27T12:06:53;100885.19;;;15.77;37.45
84703;BME280;74927;50.988;11.318;2024-01-27T12:09:19;100876.03;;;14.39;38.86
84703;BME280;74927;50.988;11.318;2024-01-27T12:11:45;100880.81;;;15.35;38.18
84703;BME280;74927;50.988;11.318;2024-01-27T12:14:11;100877.06;;;14.83;38.09
84703;BME280;74927;50.988;11.318;2024-01-27T12:16:37;100874.19;;;14.70;40.02
84703;BME280;74927;50.988;11.318;2024-01-27T12:19:03;100891.59;;;13.98;40.08
84703;BME280;74927;50.988;11.318;2024-01-27T12:21:29;100889.13;;;14.05;39.36
84703;BME280;74927;50.988;11.318;2024-01-27T12:23:56;100880.84;;;15.36;38.43
84703;BME280;74927;50.988;11.318;2024-01-27T12:26:27;100868.44;;;15.26;36.68
84703;BME280;74927;50.988;11.318;2024-01-27T12:28:54;100887.19;;;14.67;38.47
84703;BME280;74927;50.988;11.318;2024-01-27T12:31:22;100872.31;;;15.91;36.41
84703;BME280;74927;50.988;11.318;2024-01-27T12:33:52;100876.72;;;15.92;36.67
84703;BME280;74927;50.988;11.318;2024-01-27T12:36:19;100871.19;;;16.82;35.46
84703;BME280;74927;50.988;11.318;2024-01-27T12:38:58;100873.38;;;16.01;36.87
84703;BME280;74927;50.988;11.318;2024-01-27T12:41:28;100872.63;;;17.22;34.74
84703;BME280;74927;50.988;11.318;2024-01-27T12:43:55;100873.94;;;16.33;35.22
84703;BME280;74927;50.988;11.318;2024-01-27T12:46:21;100853.34;;;18.00;33.38